createdAt,value
2023-03-28T00:01:07.955Z,101075.53
2023-03-28T00:03:39.441Z,101087.13
2023-03-28T00:06:10.985Z,101082.00
2023-03-28T00:08:40.258Z,101088.50
2023-03-28T00:11:11.230Z,101087.09
2023-03-28T00:13:40.546Z,101087.13
2023-03-28T00:16:12.508Z,101089.72
2023-03-28T00:18:41.457Z,101096.53
2023-03-28T00:21:23.119Z,101101.59
2023-03-28T00:23:52.511Z,101091.91
2023-03-28T00:26:21.033Z,101107.31
2023-03-28T00:28:51.804Z,101107.91
2023-03-28T00:31:20.537Z,101111.31
2023-03-28T00:33:48.552Z,101130.19
2023-03-28T00:36:18.564Z,101137.03
2023-03-28T00:38:46.769Z,101136.16
2023-03-28T00:41:15.983Z,101143.03
2023-03-28T00:43:45.968Z,101148.19
2023-03-28T00:46:22.435Z,101145.34
2023-03-28T00:48:53.542Z,101133.09
2023-03-28T00:51:26.350Z,101120.81
2023-03-28T00:53:57.845Z,101097.41
2023-03-28T00:56:29.729Z,101074.94
2023-03-28T00:58:59.091Z,101081.72
2023-03-28T01:01:28.467Z,101082.63
2023-03-28T01:04:02.436Z,101080.84
2023-03-28T01:06:33.888Z,101091.13
2023-03-28T01:09:05.397Z,101092.72
2023-03-28T01:11:37.774Z,101085.06
2023-03-28T01:14:07.085Z,101102.25
2023-03-28T01:16:41.255Z,101095.56
2023-03-28T01:19:16.332Z,101101.31
2023-03-28T01:22:22.793Z,101113.25
2023-03-28T01:25:32.136Z,101109.16
2023-03-28T01:28:05.386Z,101109.53
2023-03-28T01:31:10.339Z,101119.53
2023-03-28T01:34:26.306Z,101126.41
2023-03-28T01:37:15.822Z,101130.88
2023-03-28T01:40:01.140Z,101134.06
2023-03-28T01:42:37.212Z,101134.88
2023-03-28T01:45:15.421Z,101136.78
2023-03-28T01:47:51.127Z,101142.59
2023-03-28T01:50:23.703Z,101146.69
2023-03-28T01:53:03.277Z,101149.34
2023-03-28T01:55:42.361Z,101154.47
2023-03-28T01:58:22.264Z,101143.91
2023-03-28T02:01:00.976Z,101154.28
2023-03-28T02:03:34.137Z,101160.22
2023-03-28T02:06:10.587Z,101170.44
2023-03-28T02:08:46.295Z,101179.94
2023-03-28T02:11:21.255Z,101179.28
2023-03-28T02:14:13.089Z,101186.31
2023-03-28T02:16:57.396Z,101182.13
2023-03-28T02:19:58.500Z,101180.69
2023-03-28T02:22:50.900Z,101198.09
2023-03-28T02:25:39.049Z,101176.47
2023-03-28T02:28:26.436Z,101183.31
2023-03-28T02:31:21.556Z,101185.94
2023-03-28T02:33:51.200Z,101187.72
2023-03-28T02:36:34.400Z,101188.72
2023-03-28T02:39:39.557Z,101194.84
2023-03-28T02:42:32.614Z,101192.19
2023-03-28T02:45:15.962Z,101190.44
2023-03-28T02:47:55.654Z,101194.72
2023-03-28T02:50:28.788Z,101195.59
2023-03-28T02:53:05.146Z,101202.53
2023-03-28T02:55:40.556Z,101201.66
2023-03-28T02:58:26.291Z,101211.16
2023-03-28T03:00:54.204Z,101212.56
2023-03-28T03:03:23.317Z,101210.72
2023-03-28T03:05:51.278Z,101208.03
2023-03-28T03:08:19.150Z,101215.03
2023-03-28T03:10:47.266Z,101219.16
2023-03-28T03:13:16.584Z,101226.16
2023-03-28T03:15:46.178Z,101231.16
2023-03-28T03:18:21.549Z,101231.00
2023-03-28T03:20:50.202Z,101246.66
2023-03-28T03:23:18.088Z,101234.19
2023-03-28T03:25:46.108Z,101246.38
2023-03-28T03:28:20.382Z,101249.13
2023-03-28T03:30:52.497Z,101250.63
2023-03-28T03:33:41.519Z,101248.19
2023-03-28T03:36:12.711Z,101244.91
2023-03-28T03:38:41.512Z,101266.56
2023-03-28T03:41:10.320Z,101266.63
2023-03-28T03:43:38.221Z,101270.84
2023-03-28T03:46:08.407Z,101278.09
2023-03-28T03:48:36.373Z,101288.34
2023-03-28T03:51:04.266Z,101285.47
2023-03-28T03:53:34.980Z,101284.88
2023-03-28T03:56:13.076Z,101292.44
2023-03-28T03:59:01.181Z,101293.84
2023-03-28T04:01:33.901Z,101300.44
2023-03-28T04:04:28.123Z,101299.75
2023-03-28T04:07:19.011Z,101295.41
2023-03-28T04:09:49.224Z,101297.00
2023-03-28T04:12:18.379Z,101314.47
2023-03-28T04:14:55.782Z,101309.41
2023-03-28T04:17:52.626Z,101322.41
2023-03-28T04:20:23.882Z,101316.09
2023-03-28T04:23:01.292Z,101329.16
2023-03-28T04:25:31.413Z,101337.13
2023-03-28T04:28:05.306Z,101328.38
2023-03-28T04:30:39.793Z,101338.84
2023-03-28T04:33:45.285Z,101348.34
2023-03-28T04:36:16.987Z,101348.34
2023-03-28T04:38:48.122Z,101354.88
2023-03-28T04:41:47.227Z,101361.53
2023-03-28T04:44:24.378Z,101378.13
2023-03-28T04:47:03.553Z,101373.53
2023-03-28T04:49:33.784Z,101381.41
2023-03-28T04:52:01.997Z,101380.56
2023-03-28T04:54:30.490Z,101394.47
2023-03-28T04:57:06.124Z,101397.09
2023-03-28T04:59:41.627Z,101406.47
2023-03-28T05:02:10.956Z,101397.72
2023-03-28T05:04:53.567Z,101412.38
2023-03-28T05:07:21.811Z,101414.72
2023-03-28T05:09:50.301Z,101414.97
2023-03-28T05:12:18.292Z,101425.38
2023-03-28T05:15:22.178Z,101426.31
2023-03-28T05:18:23.813Z,101428.13
2023-03-28T05:20:53.646Z,101430.47
2023-03-28T05:23:21.992Z,101429.47
2023-03-28T05:25:52.932Z,101440.63
2023-03-28T05:28:22.329Z,101454.56
2023-03-28T05:30:54.682Z,101443.47
2023-03-28T05:33:23.236Z,101444.78
2023-03-28T05:35:53.612Z,101459.44
2023-03-28T05:38:22.158Z,101466.16
2023-03-28T05:40:56.330Z,101468.59
2023-03-28T05:43:24.556Z,101469.63
2023-03-28T05:45:52.920Z,101467.75
2023-03-28T05:48:23.549Z,101476.50
2023-03-28T05:50:53.307Z,101477.00
2023-03-28T05:53:22.709Z,101485.25
2023-03-28T05:55:51.000Z,101493.72
2023-03-28T05:58:20.081Z,101485.03
2023-03-28T06:00:48.128Z,101491.22
2023-03-28T06:03:17.698Z,101517.38
2023-03-28T06:05:47.209Z,101503.09
2023-03-28T06:08:22.847Z,101501.38
2023-03-28T06:10:50.991Z,101506.41
2023-03-28T06:13:27.055Z,101518.53
2023-03-28T06:15:55.540Z,101522.84
2023-03-28T06:18:31.990Z,101519.28
2023-03-28T06:21:00.359Z,101527.03
2023-03-28T06:23:30.201Z,101526.03
2023-03-28T06:25:58.440Z,101530.41
2023-03-28T06:28:33.366Z,101534.53
2023-03-28T06:31:27.795Z,101528.53
2023-03-28T06:33:56.108Z,101540.66
2023-03-28T06:36:24.584Z,101534.50
2023-03-28T06:38:54.913Z,101535.38
2023-03-28T06:41:25.896Z,101539.66
2023-03-28T06:43:54.307Z,101543.94
2023-03-28T06:46:58.013Z,101558.25
2023-03-28T06:49:26.381Z,101552.97
2023-03-28T06:52:12.994Z,101559.75
2023-03-28T06:54:46.054Z,101561.66
2023-03-28T06:57:16.512Z,101564.28
2023-03-28T06:59:45.696Z,101569.22
2023-03-28T07:02:19.798Z,101562.38
2023-03-28T07:04:48.801Z,101574.31
2023-03-28T07:07:17.216Z,101566.31
2023-03-28T07:09:48.732Z,101578.19
2023-03-28T07:12:17.000Z,101572.78
2023-03-28T07:14:48.249Z,101584.16
2023-03-28T07:17:16.537Z,101568.41
2023-03-28T07:19:45.376Z,101582.97
2023-03-28T07:22:13.646Z,101601.22
2023-03-28T07:24:41.622Z,101590.66
2023-03-28T07:27:16.943Z,101589.69
2023-03-28T07:29:47.470Z,101595.47
2023-03-28T07:32:16.735Z,101591.88
2023-03-28T07:34:46.855Z,101602.38
2023-03-28T07:37:20.651Z,101603.03
2023-03-28T07:39:56.526Z,101604.41
2023-03-28T07:42:28.748Z,101616.84
2023-03-28T07:44:56.791Z,101621.84
2023-03-28T07:47:24.895Z,101627.88
2023-03-28T07:49:52.924Z,101627.94
2023-03-28T07:52:21.794Z,101629.38
2023-03-28T07:54:49.908Z,101618.00
2023-03-28T07:57:18.195Z,101639.53
2023-03-28T08:00:00.869Z,101636.84
2023-03-28T08:02:29.499Z,101631.47
2023-03-28T08:04:57.887Z,101629.44
2023-03-28T08:07:28.265Z,101637.69
2023-03-28T08:09:58.821Z,101637.59
2023-03-28T08:12:32.336Z,101649.75
2023-03-28T08:15:02.002Z,101645.25
2023-03-28T08:17:30.806Z,101647.97
2023-03-28T08:19:58.977Z,101650.38
2023-03-28T08:22:56.852Z,101654.47
2023-03-28T08:25:43.683Z,101651.81
2023-03-28T08:28:13.980Z,101645.41
2023-03-28T08:30:43.359Z,101648.00
2023-03-28T08:33:12.565Z,101648.81
2023-03-28T08:35:41.856Z,101652.06
2023-03-28T08:38:18.618Z,101651.69
2023-03-28T08:40:57.497Z,101659.00
2023-03-28T08:43:47.817Z,101685.81
2023-03-28T08:46:20.163Z,101692.25
2023-03-28T08:48:51.928Z,101675.75
2023-03-28T08:51:27.675Z,101658.88
2023-03-28T08:54:03.385Z,101673.22
2023-03-28T08:56:37.295Z,101674.63
2023-03-28T08:59:08.303Z,101669.16
2023-03-28T09:05:36.605Z,101691.59
2023-03-28T09:08:43.868Z,101682.03
2023-03-28T09:11:26.036Z,101710.63
2023-03-28T09:14:03.322Z,101694.72
2023-03-28T09:16:44.163Z,101712.56
2023-03-28T09:19:49.805Z,101705.03
2023-03-28T09:22:47.100Z,101718.31
2023-03-28T09:25:32.161Z,101706.81
2023-03-28T09:28:10.931Z,101701.97
2023-03-28T09:30:45.017Z,101710.94
2023-03-28T09:33:18.482Z,101720.72
2023-03-28T09:35:50.013Z,101727.44
2023-03-28T09:38:25.400Z,101698.56
2023-03-28T09:40:56.568Z,101722.59
2023-03-28T09:43:46.019Z,101721.47
2023-03-28T09:46:49.556Z,101739.63
2023-03-28T09:49:26.532Z,101747.38
2023-03-28T09:51:59.435Z,101738.59
2023-03-28T09:54:35.182Z,101738.28
2023-03-28T09:57:05.822Z,101734.38
2023-03-28T09:59:43.339Z,101738.09
2023-03-28T10:02:34.680Z,101728.19
2023-03-28T10:05:33.421Z,101744.34
2023-03-28T10:08:23.934Z,101756.25
2023-03-28T10:11:21.499Z,101730.19
2023-03-28T10:13:51.387Z,101757.00
2023-03-28T10:16:27.039Z,101751.53
2023-03-28T10:19:00.637Z,101736.66
2023-03-28T10:21:37.225Z,101736.91
2023-03-28T10:24:18.279Z,101736.53
2023-03-28T10:26:59.338Z,101745.16
2023-03-28T10:29:28.265Z,101750.63
2023-03-28T10:31:56.596Z,101757.34
2023-03-28T10:34:33.637Z,101737.00
2023-03-28T10:37:30.592Z,101750.19
2023-03-28T10:40:28.010Z,101753.41
2023-03-28T10:43:16.803Z,101749.16
2023-03-28T10:46:02.061Z,101759.75
2023-03-28T10:48:43.119Z,101756.31
2023-03-28T10:51:18.731Z,101751.63
2023-03-28T10:54:10.329Z,101753.19
2023-03-28T10:56:42.389Z,101763.31
2023-03-28T10:59:27.382Z,101752.75
2023-03-28T11:02:16.175Z,101753.13
2023-03-28T11:05:00.171Z,101763.00
2023-03-28T11:07:33.331Z,101760.78
2023-03-28T11:10:23.469Z,101755.78
2023-03-28T11:13:15.726Z,101759.97
2023-03-28T11:15:57.687Z,101761.56
2023-03-28T11:18:57.370Z,101787.28
2023-03-28T11:21:40.262Z,101759.47
2023-03-28T11:24:20.316Z,101772.63
2023-03-28T11:27:16.388Z,101766.81
2023-03-28T11:30:27.256Z,101764.66
2023-03-28T11:33:18.674Z,101763.59
2023-03-28T11:36:01.056Z,101747.84
2023-03-28T11:38:34.800Z,101774.22
2023-03-28T11:41:08.480Z,101782.94
2023-03-28T11:44:01.406Z,101768.34
2023-03-28T11:46:33.208Z,101766.78
2023-03-28T11:49:15.613Z,101788.78
2023-03-28T11:51:49.033Z,101788.25
2023-03-28T11:54:22.610Z,101772.94
2023-03-28T11:56:56.683Z,101771.22
2023-03-28T11:59:40.753Z,101779.13
2023-03-28T12:02:19.669Z,101758.09
2023-03-28T12:04:56.679Z,101763.38
2023-03-28T12:07:32.990Z,101774.28
2023-03-28T12:10:21.658Z,101771.78
2023-03-28T12:12:59.477Z,101759.38
2023-03-28T12:15:38.477Z,101748.63
2023-03-28T12:18:18.827Z,101758.28
2023-03-28T12:20:56.019Z,101754.16
2023-03-28T12:23:44.780Z,101753.34
2023-03-28T12:26:46.322Z,101768.34
2023-03-28T12:29:20.818Z,101762.81
2023-03-28T12:31:56.460Z,101762.81
2023-03-28T12:34:33.468Z,101759.22
2023-03-28T12:37:26.297Z,101761.22
2023-03-28T12:40:12.558Z,101764.84
2023-03-28T12:42:42.409Z,101771.31
2023-03-28T12:45:18.025Z,101775.09
2023-03-28T12:47:49.868Z,101768.78
2023-03-28T12:50:25.428Z,101760.31
2023-03-28T12:52:57.737Z,101776.47
2023-03-28T12:55:46.904Z,101767.16
2023-03-28T12:58:26.099Z,101766.38
2023-03-28T13:01:06.258Z,101776.25
2023-03-28T13:03:47.796Z,101778.88
2023-03-28T13:06:28.821Z,101750.69
2023-03-28T13:09:23.871Z,101779.47
2023-03-28T13:12:00.704Z,101778.72
2023-03-28T13:14:37.712Z,101765.81
2023-03-28T13:17:21.708Z,101773.50
2023-03-28T13:19:55.720Z,101763.72
2023-03-28T13:22:34.757Z,101762.03
2023-03-28T13:25:25.771Z,101768.72
2023-03-28T13:27:57.139Z,101770.09
2023-03-28T13:30:28.696Z,101774.00
2023-03-28T13:32:59.022Z,101761.88
2023-03-28T13:35:44.261Z,101777.28
2023-03-28T13:38:32.704Z,101758.53
2023-03-28T13:41:06.418Z,101766.56
2023-03-28T13:43:43.885Z,101773.97
2023-03-28T13:46:14.529Z,101760.31
2023-03-28T13:48:50.800Z,101764.47
2023-03-28T13:51:23.723Z,101770.22
2023-03-28T13:53:51.885Z,101754.44
2023-03-28T13:56:35.176Z,101768.69
2023-03-28T13:59:07.947Z,101758.84
2023-03-28T14:01:38.199Z,101770.81
2023-03-28T14:04:17.131Z,101759.94
2023-03-28T14:06:45.155Z,101753.34
2023-03-28T14:09:16.802Z,101742.56
2023-03-28T14:11:46.866Z,101738.88
2023-03-28T14:14:18.261Z,101743.22
2023-03-28T14:16:47.285Z,101750.00
2023-03-28T14:19:21.182Z,101744.13
2023-03-28T14:21:50.068Z,101751.78
2023-03-28T14:24:23.193Z,101744.31
2023-03-28T14:26:52.768Z,101745.50
2023-03-28T14:29:21.113Z,101742.50
2023-03-28T14:31:49.755Z,101744.13
2023-03-28T14:34:23.972Z,101737.72
2023-03-28T14:36:58.886Z,101740.19
2023-03-28T14:39:29.182Z,101752.44
2023-03-28T14:42:00.689Z,101741.13
2023-03-28T14:44:30.263Z,101738.16
2023-03-28T14:47:00.317Z,101741.81
2023-03-28T14:49:28.921Z,101739.03
2023-03-28T14:51:58.982Z,101747.53
2023-03-28T14:54:31.291Z,101749.69
2023-03-28T14:57:01.911Z,101755.09
2023-03-28T14:59:37.528Z,101741.91
2023-03-28T15:02:06.760Z,101744.97
2023-03-28T15:04:36.088Z,101740.72
2023-03-28T15:07:05.157Z,101746.84
2023-03-28T15:09:34.708Z,101751.63
2023-03-28T15:12:09.093Z,101743.47
2023-03-28T15:14:41.150Z,101754.13
2023-03-28T15:17:18.940Z,101752.97
2023-03-28T15:19:51.346Z,101742.66
2023-03-28T15:22:25.590Z,101741.56
2023-03-28T15:24:53.990Z,101743.00
2023-03-28T15:27:27.075Z,101744.72
2023-03-28T15:29:56.514Z,101735.28
2023-03-28T15:32:27.719Z,101743.66
2023-03-28T15:34:58.817Z,101732.94
2023-03-28T15:37:28.022Z,101734.41
2023-03-28T15:40:22.344Z,101733.09
2023-03-28T15:42:52.442Z,101735.28
2023-03-28T15:45:32.003Z,101734.25
2023-03-28T15:48:00.646Z,101739.44
2023-03-28T15:50:34.117Z,101737.06
2023-03-28T15:53:05.951Z,101728.94
2023-03-28T15:55:35.286Z,101757.75
2023-03-28T15:58:06.650Z,101738.00
2023-03-28T16:00:41.797Z,101739.91
2023-03-28T16:03:30.360Z,101728.81
2023-03-28T16:06:23.311Z,101718.53
2023-03-28T16:09:14.872Z,101728.19
2023-03-28T16:11:43.030Z,101732.94
2023-03-28T16:14:32.410Z,101732.63
2023-03-28T16:17:36.955Z,101735.75
2023-03-28T16:20:16.557Z,101735.44
2023-03-28T16:22:44.892Z,101736.50
2023-03-28T16:25:12.925Z,101724.28
2023-03-28T16:27:42.306Z,101735.94
2023-03-28T16:30:18.927Z,101724.91
2023-03-28T16:32:46.935Z,101727.13
2023-03-28T16:35:15.277Z,101728.81
2023-03-28T16:37:43.247Z,101737.78
2023-03-28T16:40:12.088Z,101737.50
2023-03-28T16:42:40.043Z,101730.50
2023-03-28T16:45:12.848Z,101732.53
2023-03-28T16:47:42.591Z,101731.44
2023-03-28T16:50:11.292Z,101730.03
2023-03-28T16:52:40.318Z,101726.31
2023-03-28T16:55:09.822Z,101736.56
2023-03-28T16:57:38.432Z,101731.72
2023-03-28T17:00:08.220Z,101733.75
2023-03-28T17:02:36.728Z,101731.25
2023-03-28T17:05:07.221Z,101726.25
2023-03-28T17:07:35.506Z,101732.47
2023-03-28T17:10:04.285Z,101722.84
2023-03-28T17:12:35.477Z,101715.91
2023-03-28T17:15:03.990Z,101726.56
2023-03-28T17:17:32.123Z,101716.09
2023-03-28T17:20:02.341Z,101713.44
2023-03-28T17:22:32.559Z,101710.28
2023-03-28T17:25:01.972Z,101715.31
2023-03-28T17:27:30.450Z,101711.84
2023-03-28T17:29:58.561Z,101708.53
2023-03-28T17:32:26.786Z,101711.06
2023-03-28T17:34:54.933Z,101711.19
2023-03-28T17:37:24.298Z,101700.28
2023-03-28T17:39:53.726Z,101709.91
2023-03-28T17:42:22.193Z,101713.41
2023-03-28T17:44:50.582Z,101713.03
2023-03-28T17:47:18.676Z,101717.78
2023-03-28T17:49:46.732Z,101716.75
2023-03-28T17:52:14.685Z,101716.44
2023-03-28T17:54:42.614Z,101718.06
2023-03-28T17:57:12.517Z,101720.53
2023-03-28T17:59:40.603Z,101718.84
2023-03-28T18:02:08.719Z,101712.53
2023-03-28T18:04:37.033Z,101715.41
2023-03-28T18:07:17.471Z,101720.28
2023-03-28T18:09:46.057Z,101712.31
2023-03-28T18:12:15.661Z,101712.63
2023-03-28T18:14:44.692Z,101720.00
2023-03-28T18:17:12.875Z,101720.91
2023-03-28T18:19:40.847Z,101714.31
2023-03-28T18:22:08.908Z,101714.81
2023-03-28T18:24:36.826Z,101718.03
2023-03-28T18:27:04.947Z,101713.72
2023-03-28T18:29:34.277Z,101709.72
2023-03-28T18:32:02.299Z,101708.72
2023-03-28T18:34:30.376Z,101714.84
2023-03-28T18:37:00.171Z,101715.06
2023-03-28T18:39:29.048Z,101711.03
2023-03-28T18:41:57.024Z,101706.78
2023-03-28T18:44:25.003Z,101708.31
2023-03-28T18:46:55.627Z,101710.34
2023-03-28T18:49:23.590Z,101709.56
2023-03-28T18:51:52.760Z,101712.06
2023-03-28T18:54:20.950Z,101718.28
2023-03-28T18:56:49.335Z,101714.09
2023-03-28T18:59:17.595Z,101715.75
2023-03-28T19:01:51.225Z,101715.81
2023-03-28T19:04:23.088Z,101722.03
2023-03-28T19:06:51.824Z,101718.59
2023-03-28T19:09:20.070Z,101719.81
2023-03-28T19:11:50.889Z,101723.47
2023-03-28T19:14:18.925Z,101718.34
2023-03-28T19:16:47.124Z,101713.53
2023-03-28T19:19:15.699Z,101720.22
2023-03-28T19:21:45.279Z,101719.44
2023-03-28T19:24:13.250Z,101713.44
2023-03-28T19:26:41.153Z,101720.97
2023-03-28T19:29:09.311Z,101717.78
2023-03-28T19:31:37.694Z,101712.47
2023-03-28T19:34:07.930Z,101711.75
2023-03-28T19:36:36.042Z,101718.09
2023-03-28T19:39:05.583Z,101717.97
2023-03-28T19:41:33.511Z,101717.06
2023-03-28T19:44:01.593Z,101723.19
2023-03-28T19:46:33.280Z,101715.69
2023-03-28T19:49:05.670Z,101710.63
2023-03-28T19:51:34.507Z,101716.50
2023-03-28T19:54:02.736Z,101706.31
2023-03-28T19:56:32.059Z,101708.56
2023-03-28T19:59:00.031Z,101708.38
2023-03-28T20:01:28.157Z,101706.94
2023-03-28T20:03:56.206Z,101707.91
2023-03-28T20:06:25.112Z,101707.06
2023-03-28T20:08:54.954Z,101701.25
2023-03-28T20:11:23.242Z,101713.03
2023-03-28T20:13:52.569Z,101702.59
2023-03-28T20:16:22.928Z,101702.38
2023-03-28T20:18:51.028Z,101695.59
2023-03-28T20:21:19.242Z,101703.19
2023-03-28T20:23:47.143Z,101700.53
2023-03-28T20:26:18.317Z,101692.34
2023-03-28T20:28:49.949Z,101699.56
2023-03-28T20:31:22.797Z,101692.03
2023-03-28T20:33:53.488Z,101696.31
2023-03-28T20:36:21.737Z,101691.56
2023-03-28T20:38:49.731Z,101682.94
2023-03-28T20:41:19.100Z,101686.09
2023-03-28T20:43:48.091Z,101676.41
2023-03-28T20:46:19.524Z,101676.16
2023-03-28T20:48:51.874Z,101677.00
2023-03-28T20:51:22.396Z,101676.16
2023-03-28T20:53:53.502Z,101665.00
2023-03-28T20:56:23.433Z,101666.56
2023-03-28T20:58:52.927Z,101665.78
2023-03-28T21:01:26.439Z,101662.44
2023-03-28T21:03:59.768Z,101662.44
2023-03-28T21:06:30.544Z,101653.38
2023-03-28T21:09:00.438Z,101654.03
2023-03-28T21:11:30.499Z,101660.72
2023-03-28T21:14:00.209Z,101655.59
2023-03-28T21:16:29.478Z,101656.19
2023-03-28T21:18:58.908Z,101649.50
2023-03-28T21:21:29.667Z,101653.31
2023-03-28T21:23:58.159Z,101648.88
2023-03-28T21:26:26.235Z,101653.56
2023-03-28T21:28:54.593Z,101646.88
2023-03-28T21:31:25.531Z,101650.78
2023-03-28T21:33:55.405Z,101651.34
2023-03-28T21:36:25.324Z,101649.97
2023-03-28T21:38:53.417Z,101645.19
2023-03-28T21:41:22.353Z,101640.72
2023-03-28T21:43:50.405Z,101650.38
2023-03-28T21:46:19.550Z,101644.44
2023-03-28T21:48:48.289Z,101648.59
2023-03-28T21:51:16.933Z,101638.69
2023-03-28T21:53:46.664Z,101637.59
2023-03-28T21:56:16.340Z,101640.38
2023-03-28T21:58:44.597Z,101638.06
2023-03-28T22:01:14.531Z,101626.25
2023-03-28T22:03:42.701Z,101632.78
2023-03-28T22:06:11.416Z,101634.47
2023-03-28T22:08:39.429Z,101626.91
2023-03-28T22:11:14.779Z,101625.72
2023-03-28T22:13:44.762Z,101626.75
2023-03-28T22:16:14.106Z,101635.31
2023-03-28T22:18:49.830Z,101628.81
2023-03-28T22:21:18.481Z,101622.66
2023-03-28T22:23:47.812Z,101632.63
2023-03-28T22:26:18.180Z,101635.06
2023-03-28T22:28:46.474Z,101628.72
2023-03-28T22:31:16.744Z,101624.22
2023-03-28T22:33:44.804Z,101620.09
2023-03-28T22:36:13.508Z,101621.25
2023-03-28T22:38:41.802Z,101621.94
2023-03-28T22:41:10.053Z,101621.44
2023-03-28T22:43:42.687Z,101617.91
2023-03-28T22:46:12.676Z,101614.22
2023-03-28T22:48:42.034Z,101609.75
2023-03-28T22:51:11.935Z,101605.72
2023-03-28T22:53:40.849Z,101615.53
2023-03-28T22:56:09.510Z,101606.19
2023-03-28T22:58:39.053Z,101609.34
2023-03-28T23:01:07.913Z,101609.22
2023-03-28T23:03:35.970Z,101607.13
2023-03-28T23:06:06.092Z,101606.41
2023-03-28T23:08:34.891Z,101589.59
2023-03-28T23:11:03.155Z,101599.25
2023-03-28T23:13:31.532Z,101585.69
2023-03-28T23:16:01.183Z,101591.94
2023-03-28T23:18:30.075Z,101595.50
2023-03-28T23:20:58.211Z,101594.53
2023-03-28T23:23:26.682Z,101586.94
2023-03-28T23:25:54.588Z,101588.41
2023-03-28T23:28:22.625Z,101586.31
2023-03-28T23:30:50.562Z,101575.84
2023-03-28T23:33:20.925Z,101582.06
2023-03-28T23:35:49.083Z,101576.13
2023-03-28T23:38:17.576Z,101575.06
2023-03-28T23:40:46.543Z,101568.56
2023-03-28T23:43:14.601Z,101573.97
2023-03-28T23:45:46.188Z,101565.13
2023-03-28T23:48:14.556Z,101566.78
2023-03-28T23:50:44.143Z,101557.84
2023-03-28T23:53:12.040Z,101548.91
2023-03-28T23:55:39.936Z,101541.88
2023-03-28T23:58:07.986Z,101540.09
